sensor_id;sensor_type;location;lat;lon;timestamp;pressure;altitude;pressure_sealevel;temperature;humidity
10688;BME280;5392;42.688;23.298;2023-02-19T00:03:56;57407.16;;;-144.48;91.88
10688;BME280;5392;42.688;23.298;2023-02-19T00:06:25;57457.25;;;-144.48;94.50
10688;BME280;5392;42.688;23.298;2023-02-19T00:08:52;57398.81;;;-144.48;93.99
10688;BME280;5392;42.688;23.298;2023-02-19T00:11:21;57400.91;;;-144.48;93.89
10688;BME280;5392;42.688;23.298;2023-02-19T00:13:50;57425.94;;;-144.48;93.49
10688;BME280;5392;42.688;23.298;2023-02-19T00:18:46;57407.16;;;-144.48;94.67
10688;BME280;5392;42.688;23.298;2023-02-19T00:21:13;57419.69;;;-144.48;93.88
10688;BME280;5392;42.688;23.298;2023-02-19T00:23:40;57438.47;;;-144.48;94.23
10688;BME280;5392;42.688;23.298;2023-02-19T00:26:10;57461.44;;;-144.48;93.88
10688;BME280;5392;42.688;23.298;2023-02-19T00:28:44;57407.16;;;-144.48;93.94
10688;BME280;5392;42.688;23.298;2023-02-19T00:33:43;57400.91;;;-144.48;93.15
10688;BME280;5392;42.688;23.298;2023-02-19T00:36:11;57425.94;;;-144.48;93.33
10688;BME280;5392;42.688;23.298;2023-02-19T00:38:39;57436.38;;;-144.48;94.27
10688;BME280;5392;42.688;23.298;2023-02-19T00:41:07;57413.44;;;-144.48;93.55
10688;BME280;5392;42.688;23.298;2023-02-19T00:43:48;57357.06;;;-144.48;96.19
10688;BME280;5392;42.688;23.298;2023-02-19T00:46:17;57403.00;;;-144.48;96.11
10688;BME280;5392;42.688;23.298;2023-02-19T00:48:44;57359.16;;;-144.48;96.17
10688;BME280;5392;42.688;23.298;2023-02-19T00:51:10;57444.72;;;-144.48;95.93
10688;BME280;5392;42.688;23.298;2023-02-19T00:53:38;57396.72;;;-144.48;95.63
10688;BME280;5392;42.688;23.298;2023-02-19T00:56:05;57405.06;;;-144.48;95.44
10688;BME280;5392;42.688;23.298;2023-02-19T00:58:32;57392.56;;;-144.48;94.70
10688;BME280;5392;42.688;23.298;2023-02-19T01:00:59;57369.59;;;-144.48;93.67
10688;BME280;5392;42.688;23.298;2023-02-19T01:03:26;57386.28;;;-144.48;94.02
10688;BME280;5392;42.688;23.298;2023-02-19T01:05:53;57396.72;;;-144.48;93.93
10688;BME280;5392;42.688;23.298;2023-02-19T01:08:20;57436.38;;;-144.48;94.26
10688;BME280;5392;42.688;23.298;2023-02-19T01:10:47;57392.56;;;-144.48;94.41
10688;BME280;5392;42.688;23.298;2023-02-19T01:13:14;57419.69;;;-144.48;93.67
10688;BME280;5392;42.688;23.298;2023-02-19T01:15:40;57425.94;;;-144.48;94.31
10688;BME280;5392;42.688;23.298;2023-02-19T01:18:07;57405.06;;;-144.48;93.25
10688;BME280;5392;42.688;23.298;2023-02-19T01:20:37;57448.91;;;-144.48;92.80
10688;BME280;5392;42.688;23.298;2023-02-19T01:23:05;57421.78;;;-144.48;93.33
10688;BME280;5392;42.688;23.298;2023-02-19T01:25:31;57417.59;;;-144.48;92.81
10688;BME280;5392;42.688;23.298;2023-02-19T01:27:58;57423.88;;;-144.48;92.91
10688;BME280;5392;42.688;23.298;2023-02-19T01:30:24;57432.22;;;-144.48;93.42
10688;BME280;5392;42.688;23.298;2023-02-19T01:32:51;57400.91;;;-144.48;92.63
10688;BME280;5392;42.688;23.298;2023-02-19T01:35:18;57388.38;;;-144.48;91.61
10688;BME280;5392;42.688;23.298;2023-02-19T01:37:44;57425.94;;;-144.48;88.83
10688;BME280;5392;42.688;23.298;2023-02-19T01:40:11;57417.59;;;-144.48;88.53
10688;BME280;5392;42.688;23.298;2023-02-19T01:42:42;57428.03;;;-144.48;89.20
10688;BME280;5392;42.688;23.298;2023-02-19T01:45:24;57432.22;;;-144.48;88.87
10688;BME280;5392;42.688;23.298;2023-02-19T01:48:11;57405.06;;;-144.48;90.36
10688;BME280;5392;42.688;23.298;2023-02-19T01:50:43;57415.50;;;-144.48;90.03
10688;BME280;5392;42.688;23.298;2023-02-19T01:53:13;57403.00;;;-144.48;90.61
10688;BME280;5392;42.688;23.298;2023-02-19T01:55:43;57430.13;;;-144.48;92.19
10688;BME280;5392;42.688;23.298;2023-02-19T01:58:11;57415.50;;;-144.48;92.89
10688;BME280;5392;42.688;23.298;2023-02-19T02:00:38;57417.59;;;-144.48;92.16
10688;BME280;5392;42.688;23.298;2023-02-19T02:03:05;57398.81;;;-144.48;93.46
10688;BME280;5392;42.688;23.298;2023-02-19T02:05:39;57400.91;;;-144.48;93.39
10688;BME280;5392;42.688;23.298;2023-02-19T02:08:07;57405.06;;;-144.48;92.19
10688;BME280;5392;42.688;23.298;2023-02-19T02:10:53;57425.94;;;-144.48;92.62
10688;BME280;5392;42.688;23.298;2023-02-19T02:13:20;57405.06;;;-144.48;93.96
10688;BME280;5392;42.688;23.298;2023-02-19T02:21:32;57390.47;;;-144.48;96.88
10688;BME280;5392;42.688;23.298;2023-02-19T02:26:54;57413.44;;;-144.48;96.78
10688;BME280;5392;42.688;23.298;2023-02-19T02:32:10;57388.38;;;-144.48;96.54
10688;BME280;5392;42.688;23.298;2023-02-19T02:34:58;57357.06;;;-144.48;96.27
10688;BME280;5392;42.688;23.298;2023-02-19T02:37:27;57371.69;;;-144.48;96.88
10688;BME280;5392;42.688;23.298;2023-02-19T02:39:58;57409.25;;;-144.48;96.88
10688;BME280;5392;42.688;23.298;2023-02-19T02:42:25;57396.72;;;-144.48;97.08
10688;BME280;5392;42.688;23.298;2023-02-19T02:44:56;57377.94;;;-144.48;96.70
10688;BME280;5392;42.688;23.298;2023-02-19T02:47:53;57363.31;;;-144.48;96.15
10688;BME280;5392;42.688;23.298;2023-02-19T02:50:30;57394.63;;;-144.48;95.98
10688;BME280;5392;42.688;23.298;2023-02-19T02:53:06;57386.28;;;-144.48;96.12
10688;BME280;5392;42.688;23.298;2023-02-19T02:55:53;57403.00;;;-144.48;95.88
10688;BME280;5392;42.688;23.298;2023-02-19T02:58:23;57432.22;;;-144.48;95.98
10688;BME280;5392;42.688;23.298;2023-02-19T03:00:54;57430.13;;;-144.48;95.88
10688;BME280;5392;42.688;23.298;2023-02-19T03:03:43;57417.59;;;-144.48;95.66
10688;BME280;5392;42.688;23.298;2023-02-19T03:06:14;57371.69;;;-144.48;96.08
10688;BME280;5392;42.688;23.298;2023-02-19T03:09:10;57386.28;;;-144.48;96.41
10688;BME280;5392;42.688;23.298;2023-02-19T03:11:40;57394.63;;;-144.48;97.07
10688;BME280;5392;42.688;23.298;2023-02-19T03:14:48;57423.88;;;-144.48;97.12
10688;BME280;5392;42.688;23.298;2023-02-19T03:17:45;57400.91;;;-144.48;95.70
10688;BME280;5392;42.688;23.298;2023-02-19T03:20:35;57459.34;;;-144.48;95.27
10688;BME280;5392;42.688;23.298;2023-02-19T03:23:05;57438.47;;;-144.48;94.19
10688;BME280;5392;42.688;23.298;2023-02-19T03:25:36;57392.56;;;-144.48;93.92
10688;BME280;5392;42.688;23.298;2023-02-19T03:28:24;57403.00;;;-144.48;94.36
10688;BME280;5392;42.688;23.298;2023-02-19T03:31:15;57407.16;;;-144.48;96.58
10688;BME280;5392;42.688;23.298;2023-02-19T03:33:47;57421.78;;;-144.48;97.25
10688;BME280;5392;42.688;23.298;2023-02-19T03:36:16;57371.69;;;-144.48;99.82
10688;BME280;5392;42.688;23.298;2023-02-19T03:38:50;57350.81;;;-144.48;100.00
10688;BME280;5392;42.688;23.298;2023-02-19T03:41:22;57367.50;;;-144.48;100.00
10688;BME280;5392;42.688;23.298;2023-02-19T03:44:15;57432.22;;;-144.48;99.07
10688;BME280;5392;42.688;23.298;2023-02-19T03:46:51;57415.50;;;-144.48;97.62
10688;BME280;5392;42.688;23.298;2023-02-19T03:49:28;57405.06;;;-144.48;96.55
10688;BME280;5392;42.688;23.298;2023-02-19T03:52:55;57421.78;;;-144.48;96.02
10688;BME280;5392;42.688;23.298;2023-02-19T03:57:47;57421.78;;;-144.48;95.36
10688;BME280;5392;42.688;23.298;2023-02-19T04:00:30;57386.28;;;-144.48;94.45
10688;BME280;5392;42.688;23.298;2023-02-19T04:06:00;57403.00;;;-144.48;93.89
10688;BME280;5392;42.688;23.298;2023-02-19T04:08:28;57400.91;;;-144.48;94.28
10688;BME280;5392;42.688;23.298;2023-02-19T04:10:58;57419.69;;;-144.48;94.12
10688;BME280;5392;42.688;23.298;2023-02-19T04:13:29;57415.50;;;-144.48;94.12
10688;BME280;5392;42.688;23.298;2023-02-19T04:16:01;57380.03;;;-144.48;92.97
10688;BME280;5392;42.688;23.298;2023-02-19T04:18:32;57390.47;;;-144.48;92.52
10688;BME280;5392;42.688;23.298;2023-02-19T04:21:02;57436.38;;;-144.48;91.34
10688;BME280;5392;42.688;23.298;2023-02-19T04:23:33;57400.91;;;-144.48;90.98
10688;BME280;5392;42.688;23.298;2023-02-19T04:26:02;57425.94;;;-144.48;90.33
10688;BME280;5392;42.688;23.298;2023-02-19T04:28:30;57388.38;;;-144.48;89.76
10688;BME280;5392;42.688;23.298;2023-02-19T04:30:56;57405.06;;;-144.48;89.15
10688;BME280;5392;42.688;23.298;2023-02-19T04:33:23;57400.91;;;-144.48;88.09
10688;BME280;5392;42.688;23.298;2023-02-19T04:35:50;57369.59;;;-144.48;87.78
10688;BME280;5392;42.688;23.298;2023-02-19T04:38:16;57396.72;;;-144.48;87.56
10688;BME280;5392;42.688;23.298;2023-02-19T04:40:43;57417.59;;;-144.48;86.77
10688;BME280;5392;42.688;23.298;2023-02-19T04:43:09;57380.03;;;-144.48;86.78
10688;BME280;5392;42.688;23.298;2023-02-19T04:45:37;57394.63;;;-144.48;86.90
10688;BME280;5392;42.688;23.298;2023-02-19T04:48:04;57419.69;;;-144.48;85.98
10688;BME280;5392;42.688;23.298;2023-02-19T04:50:31;57438.47;;;-144.48;85.41
10688;BME280;5392;42.688;23.298;2023-02-19T04:52:58;57430.13;;;-144.48;85.45
10688;BME280;5392;42.688;23.298;2023-02-19T04:55:24;57392.56;;;-144.48;84.94
10688;BME280;5392;42.688;23.298;2023-02-19T04:57:51;57438.47;;;-144.48;84.90
10688;BME280;5392;42.688;23.298;2023-02-19T05:00:17;57411.34;;;-144.48;84.39
10688;BME280;5392;42.688;23.298;2023-02-19T05:02:44;57411.34;;;-144.48;83.76
10688;BME280;5392;42.688;23.298;2023-02-19T05:05:10;57438.47;;;-144.48;83.17
10688;BME280;5392;42.688;23.298;2023-02-19T05:07:37;57407.16;;;-144.48;82.48
10688;BME280;5392;42.688;23.298;2023-02-19T05:10:04;57430.13;;;-144.48;81.89
10688;BME280;5392;42.688;23.298;2023-02-19T05:12:31;57446.81;;;-144.48;81.86
10688;BME280;5392;42.688;23.298;2023-02-19T05:14:57;57446.81;;;-144.48;82.50
10688;BME280;5392;42.688;23.298;2023-02-19T05:17:24;57425.94;;;-144.48;82.11
10688;BME280;5392;42.688;23.298;2023-02-19T05:19:51;57413.44;;;-144.48;81.81
10688;BME280;5392;42.688;23.298;2023-02-19T05:22:17;57405.06;;;-144.48;82.30
10688;BME280;5392;42.688;23.298;2023-02-19T05:24:44;57444.72;;;-144.48;81.80
10688;BME280;5392;42.688;23.298;2023-02-19T05:27:10;57394.63;;;-144.48;82.28
10688;BME280;5392;42.688;23.298;2023-02-19T05:29:37;57386.28;;;-144.48;81.58
10688;BME280;5392;42.688;23.298;2023-02-19T05:32:04;57425.94;;;-144.48;81.33
10688;BME280;5392;42.688;23.298;2023-02-19T05:34:30;57421.78;;;-144.48;81.78
10688;BME280;5392;42.688;23.298;2023-02-19T05:36:57;57359.16;;;-144.48;81.07
10688;BME280;5392;42.688;23.298;2023-02-19T05:39:24;57413.44;;;-144.48;80.10
10688;BME280;5392;42.688;23.298;2023-02-19T05:41:50;57440.56;;;-144.48;79.24
10688;BME280;5392;42.688;23.298;2023-02-19T05:44:17;57419.69;;;-144.48;76.77
10688;BME280;5392;42.688;23.298;2023-02-19T05:46:43;57386.28;;;-144.48;76.38
10688;BME280;5392;42.688;23.298;2023-02-19T05:49:10;57413.44;;;-144.48;77.21
10688;BME280;5392;42.688;23.298;2023-02-19T05:51:37;57388.38;;;-144.48;76.40
10688;BME280;5392;42.688;23.298;2023-02-19T05:54:04;57390.47;;;-144.48;76.14
10688;BME280;5392;42.688;23.298;2023-02-19T05:56:38;57400.91;;;-144.48;74.95
10688;BME280;5392;42.688;23.298;2023-02-19T05:59:15;57390.47;;;-144.48;73.48
10688;BME280;5392;42.688;23.298;2023-02-19T06:01:42;57423.88;;;-144.48;70.25
10688;BME280;5392;42.688;23.298;2023-02-19T06:04:10;57413.44;;;-144.48;69.35
10688;BME280;5392;42.688;23.298;2023-02-19T06:06:39;57357.06;;;-144.48;68.50
10688;BME280;5392;42.688;23.298;2023-02-19T06:09:06;57373.75;;;-144.48;67.14
10688;BME280;5392;42.688;23.298;2023-02-19T06:11:34;57392.56;;;-144.48;64.83
10688;BME280;5392;42.688;23.298;2023-02-19T06:14:01;57369.59;;;-144.48;64.55
10688;BME280;5392;42.688;23.298;2023-02-19T06:16:28;57361.25;;;-144.48;63.98
10688;BME280;5392;42.688;23.298;2023-02-19T06:18:55;57419.69;;;-144.48;63.99
10688;BME280;5392;42.688;23.298;2023-02-19T06:21:21;57382.13;;;-144.48;63.60
10688;BME280;5392;42.688;23.298;2023-02-19T06:23:48;57409.25;;;-144.48;63.88
10688;BME280;5392;42.688;23.298;2023-02-19T06:26:18;57392.56;;;-144.48;63.94
10688;BME280;5392;42.688;23.298;2023-02-19T06:28:46;57392.56;;;-144.48;64.25
10688;BME280;5392;42.688;23.298;2023-02-19T06:31:14;57371.69;;;-144.48;64.07
10688;BME280;5392;42.688;23.298;2023-02-19T06:33:41;57390.47;;;-144.48;64.22
10688;BME280;5392;42.688;23.298;2023-02-19T06:36:13;57413.44;;;-144.48;64.53
10688;BME280;5392;42.688;23.298;2023-02-19T06:38:40;57371.69;;;-144.48;64.30
10688;BME280;5392;42.688;23.298;2023-02-19T06:41:08;57394.63;;;-144.48;63.78
10688;BME280;5392;42.688;23.298;2023-02-19T06:43:35;57386.28;;;-144.48;64.02
10688;BME280;5392;42.688;23.298;2023-02-19T06:46:04;57388.38;;;-144.48;63.35
10688;BME280;5392;42.688;23.298;2023-02-19T06:48:31;57396.72;;;-144.48;62.95
10688;BME280;5392;42.688;23.298;2023-02-19T06:50:58;57417.59;;;-144.48;62.64
10688;BME280;5392;42.688;23.298;2023-02-19T06:53:25;57375.84;;;-144.48;62.78
10688;BME280;5392;42.688;23.298;2023-02-19T06:56:18;57369.59;;;-144.48;62.67
10688;BME280;5392;42.688;23.298;2023-02-19T06:58:46;57440.56;;;-144.48;63.11
10688;BME280;5392;42.688;23.298;2023-02-19T07:01:12;57388.38;;;-144.48;62.99
10688;BME280;5392;42.688;23.298;2023-02-19T07:03:39;57388.38;;;-144.48;63.58
10688;BME280;5392;42.688;23.298;2023-02-19T07:06:06;57394.63;;;-144.48;63.45
10688;BME280;5392;42.688;23.298;2023-02-19T07:08:32;57407.16;;;-144.48;63.61
10688;BME280;5392;42.688;23.298;2023-02-19T07:10:59;57359.16;;;-144.48;63.63
10688;BME280;5392;42.688;23.298;2023-02-19T07:13:27;57373.75;;;-144.48;63.11
10688;BME280;5392;42.688;23.298;2023-02-19T07:16:02;57394.63;;;-144.48;62.51
10688;BME280;5392;42.688;23.298;2023-02-19T07:18:29;57388.38;;;-144.48;62.18
10688;BME280;5392;42.688;23.298;2023-02-19T07:21:03;57417.59;;;-144.48;62.03
10688;BME280;5392;42.688;23.298;2023-02-19T07:23:30;57367.50;;;-144.48;61.85
10688;BME280;5392;42.688;23.298;2023-02-19T07:25:57;57386.28;;;-144.48;61.52
10688;BME280;5392;42.688;23.298;2023-02-19T07:28:24;57428.03;;;-144.48;61.30
10688;BME280;5392;42.688;23.298;2023-02-19T07:30:50;57411.34;;;-144.48;60.65
10688;BME280;5392;42.688;23.298;2023-02-19T07:33:17;57350.81;;;-144.48;60.48
10688;BME280;5392;42.688;23.298;2023-02-19T07:35:45;57396.72;;;-144.48;60.31
10688;BME280;5392;42.688;23.298;2023-02-19T07:38:15;57419.69;;;-144.48;60.11
10688;BME280;5392;42.688;23.298;2023-02-19T07:40:49;57365.41;;;-144.48;59.74
10688;BME280;5392;42.688;23.298;2023-02-19T07:43:17;57384.19;;;-144.48;59.49
10688;BME280;5392;42.688;23.298;2023-02-19T07:45:44;57413.44;;;-144.48;59.54
10688;BME280;5392;42.688;23.298;2023-02-19T07:48:12;57419.69;;;-144.48;59.87
10688;BME280;5392;42.688;23.298;2023-02-19T07:50:39;57417.59;;;-144.48;59.61
10688;BME280;5392;42.688;23.298;2023-02-19T07:53:06;57405.06;;;-144.48;59.86
10688;BME280;5392;42.688;23.298;2023-02-19T07:55:33;57369.59;;;-144.48;60.04
10688;BME280;5392;42.688;23.298;2023-02-19T07:57:59;57390.47;;;-144.48;59.84
10688;BME280;5392;42.688;23.298;2023-02-19T08:00:26;57377.94;;;-144.48;60.08
10688;BME280;5392;42.688;23.298;2023-02-19T08:02:53;57371.69;;;-144.48;60.28
10688;BME280;5392;42.688;23.298;2023-02-19T08:05:26;57380.03;;;-144.48;60.17
10688;BME280;5392;42.688;23.298;2023-02-19T08:07:53;57380.03;;;-144.48;60.14
10688;BME280;5392;42.688;23.298;2023-02-19T08:10:20;57359.16;;;-144.48;59.97
10688;BME280;5392;42.688;23.298;2023-02-19T08:13:05;57350.81;;;-144.48;60.74
10688;BME280;5392;42.688;23.298;2023-02-19T08:15:45;57390.47;;;-144.48;61.07
10688;BME280;5392;42.688;23.298;2023-02-19T08:18:13;57377.94;;;-144.48;60.88
10688;BME280;5392;42.688;23.298;2023-02-19T08:20:40;57367.50;;;-144.48;60.99
10688;BME280;5392;42.688;23.298;2023-02-19T08:23:08;57365.41;;;-144.48;60.78
10688;BME280;5392;42.688;23.298;2023-02-19T08:25:35;57365.41;;;-144.48;60.46
10688;BME280;5392;42.688;23.298;2023-02-19T08:28:02;57407.16;;;-144.48;60.65
10688;BME280;5392;42.688;23.298;2023-02-19T08:30:31;57363.31;;;-144.48;59.92
10688;BME280;5392;42.688;23.298;2023-02-19T08:32:59;57371.69;;;-144.48;58.81
10688;BME280;5392;42.688;23.298;2023-02-19T08:35:28;57373.75;;;-144.48;58.81
10688;BME280;5392;42.688;23.298;2023-02-19T08:37:58;57359.16;;;-144.48;59.35
10688;BME280;5392;42.688;23.298;2023-02-19T08:40:25;57373.75;;;-144.48;59.41
10688;BME280;5392;42.688;23.298;2023-02-19T08:42:52;57377.94;;;-144.48;58.96
10688;BME280;5392;42.688;23.298;2023-02-19T08:45:19;57371.69;;;-144.48;58.69
10688;BME280;5392;42.688;23.298;2023-02-19T08:47:46;57382.13;;;-144.48;59.14
10688;BME280;5392;42.688;23.298;2023-02-19T08:50:12;57365.41;;;-144.48;59.32
10688;BME280;5392;42.688;23.298;2023-02-19T08:52:39;57342.47;;;-144.48;59.71
10688;BME280;5392;42.688;23.298;2023-02-19T08:55:06;57386.28;;;-144.48;59.47
10688;BME280;5392;42.688;23.298;2023-02-19T08:57:35;57417.59;;;-144.48;59.64
10688;BME280;5392;42.688;23.298;2023-02-19T09:00:04;57409.25;;;-144.48;60.57
10688;BME280;5392;42.688;23.298;2023-02-19T09:02:31;57382.13;;;-144.48;60.73
10688;BME280;5392;42.688;23.298;2023-02-19T09:04:58;57425.94;;;-144.48;60.83
10688;BME280;5392;42.688;23.298;2023-02-19T09:07:25;57369.59;;;-144.48;60.38
10688;BME280;5392;42.688;23.298;2023-02-19T09:09:52;57384.19;;;-144.48;60.38
10688;BME280;5392;42.688;23.298;2023-02-19T09:12:18;57377.94;;;-144.48;60.18
10688;BME280;5392;42.688;23.298;2023-02-19T09:14:45;57392.56;;;-144.48;60.08
10688;BME280;5392;42.688;23.298;2023-02-19T09:17:12;57455.16;;;-144.48;60.01
10688;BME280;5392;42.688;23.298;2023-02-19T09:19:38;57403.00;;;-144.48;60.62
10688;BME280;5392;42.688;23.298;2023-02-19T09:22:05;57382.13;;;-144.48;61.01
10688;BME280;5392;42.688;23.298;2023-02-19T09:24:32;57398.81;;;-144.48;61.10
10688;BME280;5392;42.688;23.298;2023-02-19T09:26:59;57388.38;;;-144.48;60.89
10688;BME280;5392;42.688;23.298;2023-02-19T09:29:26;57425.94;;;-144.48;61.44
10688;BME280;5392;42.688;23.298;2023-02-19T09:31:58;57375.84;;;-144.48;61.21
10688;BME280;5392;42.688;23.298;2023-02-19T09:34:26;57392.56;;;-144.48;61.02
10688;BME280;5392;42.688;23.298;2023-02-19T09:36:53;57342.47;;;-144.48;61.37
10688;BME280;5392;42.688;23.298;2023-02-19T09:39:20;57411.34;;;-144.48;60.89
10688;BME280;5392;42.688;23.298;2023-02-19T09:41:51;57390.47;;;-144.48;60.78
10688;BME280;5392;42.688;23.298;2023-02-19T09:44:28;57363.31;;;-144.48;60.73
10688;BME280;5392;42.688;23.298;2023-02-19T09:46:57;57380.03;;;-144.48;60.54
10688;BME280;5392;42.688;23.298;2023-02-19T09:49:33;57365.41;;;-144.48;60.58
10688;BME280;5392;42.688;23.298;2023-02-19T09:52:31;57369.59;;;-144.48;60.13
10688;BME280;5392;42.688;23.298;2023-02-19T09:55:04;57380.03;;;-144.48;60.02
10688;BME280;5392;42.688;23.298;2023-02-19T09:57:39;57363.31;;;-144.48;59.45
10688;BME280;5392;42.688;23.298;2023-02-19T10:00:20;57415.50;;;-144.48;59.10
10688;BME280;5392;42.688;23.298;2023-02-19T10:02:54;57392.56;;;-144.48;58.10
10688;BME280;5392;42.688;23.298;2023-02-19T10:05:26;57398.81;;;-144.48;57.82
10688;BME280;5392;42.688;23.298;2023-02-19T10:07:54;57359.16;;;-144.48;58.20
10688;BME280;5392;42.688;23.298;2023-02-19T10:10:28;57386.28;;;-144.48;58.00
10688;BME280;5392;42.688;23.298;2023-02-19T10:13:13;57373.75;;;-144.48;58.56
10688;BME280;5392;42.688;23.298;2023-02-19T10:15:47;57403.00;;;-144.48;58.60
10688;BME280;5392;42.688;23.298;2023-02-19T10:18:28;57350.81;;;-144.48;58.70
10688;BME280;5392;42.688;23.298;2023-02-19T10:20:57;57363.31;;;-144.48;58.62
10688;BME280;5392;42.688;23.298;2023-02-19T10:23:24;57363.31;;;-144.48;58.81
10688;BME280;5392;42.688;23.298;2023-02-19T10:25:55;57405.06;;;-144.48;59.24
10688;BME280;5392;42.688;23.298;2023-02-19T10:28:27;57357.06;;;-144.48;59.26
10688;BME280;5392;42.688;23.298;2023-02-19T10:30:59;57321.59;;;-144.48;58.64
10688;BME280;5392;42.688;23.298;2023-02-19T10:33:26;57419.69;;;-144.48;59.16
10688;BME280;5392;42.688;23.298;2023-02-19T10:36:04;57403.00;;;-144.48;59.29
10688;BME280;5392;42.688;23.298;2023-02-19T10:38:38;57315.31;;;-144.48;58.87
10688;BME280;5392;42.688;23.298;2023-02-19T10:41:06;57342.47;;;-144.48;58.76
10688;BME280;5392;42.688;23.298;2023-02-19T10:43:37;57377.94;;;-144.48;58.78
10688;BME280;5392;42.688;23.298;2023-02-19T10:46:19;57392.56;;;-144.48;58.57
10688;BME280;5392;42.688;23.298;2023-02-19T10:48:53;57363.31;;;-144.48;58.53
10688;BME280;5392;42.688;23.298;2023-02-19T10:51:30;57334.09;;;-144.48;58.66
10688;BME280;5392;42.688;23.298;2023-02-19T10:56:30;57363.31;;;-144.48;57.95
10688;BME280;5392;42.688;23.298;2023-02-19T10:59:25;57354.97;;;-144.48;58.00
10688;BME280;5392;42.688;23.298;2023-02-19T11:01:56;57382.13;;;-144.48;58.15
10688;BME280;5392;42.688;23.298;2023-02-19T11:04:25;57346.63;;;-144.48;57.98
10688;BME280;5392;42.688;23.298;2023-02-19T11:06:52;57400.91;;;-144.48;57.80
10688;BME280;5392;42.688;23.298;2023-02-19T11:09:31;57332.03;;;-144.48;57.49
10688;BME280;5392;42.688;23.298;2023-02-19T11:12:00;57415.50;;;-144.48;57.97
10688;BME280;5392;42.688;23.298;2023-02-19T11:14:28;57396.72;;;-144.48;58.19
10688;BME280;5392;42.688;23.298;2023-02-19T11:16:57;57384.19;;;-144.48;57.84
10688;BME280;5392;42.688;23.298;2023-02-19T11:19:37;57377.94;;;-144.48;56.97
10688;BME280;5392;42.688;23.298;2023-02-19T11:24:53;57375.84;;;-144.48;56.71
10688;BME280;5392;42.688;23.298;2023-02-19T11:27:25;57411.34;;;-144.48;56.40
10688;BME280;5392;42.688;23.298;2023-02-19T11:29:52;57398.81;;;-144.48;56.70
10688;BME280;5392;42.688;23.298;2023-02-19T11:34:46;57375.84;;;-144.48;56.49
10688;BME280;5392;42.688;23.298;2023-02-19T11:37:15;57329.94;;;-144.48;56.42
10688;BME280;5392;42.688;23.298;2023-02-19T11:39:47;57380.03;;;-144.48;56.31
10688;BME280;5392;42.688;23.298;2023-02-19T11:45:19;57405.06;;;-144.48;55.59
10688;BME280;5392;42.688;23.298;2023-02-19T11:51:09;57390.47;;;-144.48;55.82
10688;BME280;5392;42.688;23.298;2023-02-19T11:53:47;57352.91;;;-144.48;55.61
10688;BME280;5392;42.688;23.298;2023-02-19T11:56:33;57388.38;;;-144.48;55.70
10688;BME280;5392;42.688;23.298;2023-02-19T11:59:04;57357.06;;;-144.48;55.42
10688;BME280;5392;42.688;23.298;2023-02-19T12:23:31;57380.03;;;-144.48;54.58
10688;BME280;5392;42.688;23.298;2023-02-19T12:26:07;57384.19;;;-144.48;54.73
10688;BME280;5392;42.688;23.298;2023-02-19T12:32:02;57375.84;;;-144.48;54.50
10688;BME280;5392;42.688;23.298;2023-02-19T12:34:50;57398.81;;;-144.48;54.64
10688;BME280;5392;42.688;23.298;2023-02-19T12:43:20;57357.06;;;-144.48;54.35
10688;BME280;5392;42.688;23.298;2023-02-19T12:46:10;57386.28;;;-144.48;54.48
10688;BME280;5392;42.688;23.298;2023-02-19T12:51:06;57396.72;;;-144.48;54.54
10688;BME280;5392;42.688;23.298;2023-02-19T12:53:47;57373.75;;;-144.48;54.79
10688;BME280;5392;42.688;23.298;2023-02-19T12:56:20;57371.69;;;-144.48;54.64
10688;BME280;5392;42.688;23.298;2023-02-19T12:58:52;57373.75;;;-144.48;54.72
10688;BME280;5392;42.688;23.298;2023-02-19T13:01:27;57377.94;;;-144.48;54.78
10688;BME280;5392;42.688;23.298;2023-02-19T13:06:48;57384.19;;;-144.48;54.45
10688;BME280;5392;42.688;23.298;2023-02-19T13:09:22;57352.91;;;-144.48;54.58
10688;BME280;5392;42.688;23.298;2023-02-19T13:15:00;57354.97;;;-144.48;54.72
10688;BME280;5392;42.688;23.298;2023-02-19T13:17:37;57386.28;;;-144.48;54.83
10688;BME280;5392;42.688;23.298;2023-02-19T13:20:17;57334.09;;;-144.48;54.59
10688;BME280;5392;42.688;23.298;2023-02-19T13:22:57;57380.03;;;-144.48;54.91
10688;BME280;5392;42.688;23.298;2023-02-19T13:25:58;57348.72;;;-144.48;54.68
10688;BME280;5392;42.688;23.298;2023-02-19T13:36:51;57359.16;;;-144.48;54.43
10688;BME280;5392;42.688;23.298;2023-02-19T13:39:19;57342.47;;;-144.48;54.54
10688;BME280;5392;42.688;23.298;2023-02-19T13:41:53;57365.41;;;-144.48;54.25
10688;BME280;5392;42.688;23.298;2023-02-19T13:44:24;57342.47;;;-144.48;54.39
10688;BME280;5392;42.688;23.298;2023-02-19T13:46:52;57361.25;;;-144.48;54.51
10688;BME280;5392;42.688;23.298;2023-02-19T13:52:02;57363.31;;;-144.48;54.81
10688;BME280;5392;42.688;23.298;2023-02-19T13:54:33;57336.19;;;-144.48;54.97
10688;BME280;5392;42.688;23.298;2023-02-19T13:59:55;57369.59;;;-144.48;55.27
10688;BME280;5392;42.688;23.298;2023-02-19T14:04:52;57361.25;;;-144.48;55.36
10688;BME280;5392;42.688;23.298;2023-02-19T14:09:53;57396.72;;;-144.48;55.29
10688;BME280;5392;42.688;23.298;2023-02-19T14:12:21;57382.13;;;-144.48;55.47
10688;BME280;5392;42.688;23.298;2023-02-19T14:17:42;57367.50;;;-144.48;55.75
10688;BME280;5392;42.688;23.298;2023-02-19T14:30:29;57352.91;;;-144.48;55.48
10688;BME280;5392;42.688;23.298;2023-02-19T14:32:57;57315.31;;;-144.48;55.36
10688;BME280;5392;42.688;23.298;2023-02-19T14:36:02;57344.53;;;-144.48;55.27
10688;BME280;5392;42.688;23.298;2023-02-19T14:38:34;57380.03;;;-144.48;55.10
10688;BME280;5392;42.688;23.298;2023-02-19T14:41:02;57365.41;;;-144.48;55.00
10688;BME280;5392;42.688;23.298;2023-02-19T14:43:30;57354.97;;;-144.48;55.29
10688;BME280;5392;42.688;23.298;2023-02-19T14:48:46;57363.31;;;-144.48;55.28
10688;BME280;5392;42.688;23.298;2023-02-19T14:51:30;57377.94;;;-144.48;55.39
10688;BME280;5392;42.688;23.298;2023-02-19T14:54:03;57375.84;;;-144.48;55.09